Time;durP1;ratioP1;P1;durP2;ratioP2;P2;SDS_P1;SDS_P2;PMS_P1;PMS_P2;Temp;Humidity;BMP_temperature;BMP_pressure;BME280_temperature;BME280_humidity;BME280_pressure;Samples;Min_cycle;Max_cycle;Signal;HPM_P1;HPM_P2
2024/01/31 00:01:39;;;;;;;49.20;23.25;;;;;;;-142.57;100.00;55624.25;5016923;28;20061;-80
2024/01/31 00:04:05;;;;;;;48.70;22.13;;;;;;;-142.57;100.00;55680.81;5025436;28;20038;-77
2024/01/31 00:06:31;;;;;;;52.67;22.83;;;;;;;-142.57;100.00;55634.34;5034567;28;20045;-78
2024/01/31 00:08:57;;;;;;;47.92;23.10;;;;;;;-142.57;100.00;55680.81;5036600;28;20026;-77
2024/01/31 00:11:28;;;;;;;52.72;21.90;;;;;;;-142.57;100.00;55640.41;5020869;28;20048;-77
2024/01/31 00:13:57;;;;;;;45.67;21.48;;;;;;;-142.57;100.00;55662.63;5038529;28;20104;-79
2024/01/31 00:16:26;;;;;;;44.08;21.20;;;;;;;-142.57;100.00;55664.66;5035460;28;20402;-78
2024/01/31 00:18:51;;;;;;;53.30;22.95;;;;;;;-142.57;100.00;55717.19;5015559;28;20038;-78
2024/01/31 00:21:17;;;;;;;49.60;21.52;;;;;;;-142.57;100.00;55711.13;5014424;28;20021;-78
2024/01/31 00:23:43;;;;;;;48.05;20.48;;;;;;;-142.57;100.00;55656.56;5014523;28;20037;-78
2024/01/31 00:26:09;;;;;;;41.00;18.98;;;;;;;-142.57;100.00;55676.78;5014124;28;21393;-78
2024/01/31 00:28:34;;;;;;;41.47;19.15;;;;;;;-142.57;100.00;55660.63;5025439;28;20032;-77
2024/01/31 00:31:00;;;;;;;49.50;19.48;;;;;;;-142.57;100.00;55674.75;5023798;28;20037;-77
2024/01/31 00:33:25;;;;;;;36.67;17.27;;;;;;;-142.57;100.00;55676.78;5033513;28;20044;-78
2024/01/31 00:35:55;;;;;;;37.75;16.98;;;;;;;-142.57;100.00;55680.81;5015701;28;20548;-81
2024/01/31 00:38:21;;;;;;;34.92;16.58;;;;;;;-142.57;100.00;55709.09;4998956;28;20108;-78
2024/01/31 00:40:47;;;;;;;36.33;16.83;;;;;;;-142.57;100.00;55676.78;5032938;28;20030;-78
2024/01/31 00:43:13;;;;;;;34.65;16.33;;;;;;;-142.57;100.00;55624.25;5020870;28;20042;-79
2024/01/31 00:45:39;;;;;;;37.08;16.95;;;;;;;-142.57;100.00;55656.56;5012995;28;20033;-79
2024/01/31 00:48:04;;;;;;;35.42;15.95;;;;;;;-142.57;100.00;55678.81;4995792;28;20096;-80
2024/01/31 00:50:30;;;;;;;37.78;17.13;;;;;;;-142.57;100.00;55697.00;5013335;28;20042;-79
2024/01/31 00:52:55;;;;;;;36.83;17.00;;;;;;;-142.57;100.00;55672.75;5016004;28;20034;-79
2024/01/31 00:55:21;;;;;;;38.95;18.73;;;;;;;-142.57;100.00;55656.56;5016378;28;20062;-79
2024/01/31 00:57:47;;;;;;;37.53;17.75;;;;;;;-142.57;100.00;55705.06;5013035;28;20033;-79
2024/01/31 01:00:14;;;;;;;38.40;18.00;;;;;;;-142.57;100.00;55680.81;5036134;28;20034;-80
2024/01/31 01:02:40;;;;;;;37.30;17.17;;;;;;;-142.57;100.00;55690.94;5021751;28;20036;-78
2024/01/31 01:05:09;;;;;;;33.63;16.55;;;;;;;-142.57;100.00;55717.19;5033619;28;20408;-79
2024/01/31 01:07:41;;;;;;;37.38;16.60;;;;;;;-142.57;100.00;55676.78;5032848;28;20453;-78
2024/01/31 01:10:12;;;;;;;35.75;16.63;;;;;;;-142.57;100.00;55672.75;5025714;28;20028;-79
2024/01/31 01:12:38;;;;;;;39.15;16.13;;;;;;;-142.57;100.00;55670.72;5012713;28;20084;-80
2024/01/31 01:15:04;;;;;;;33.20;15.40;;;;;;;-142.57;100.00;55694.97;5013092;28;20038;-80
2024/01/31 01:17:30;;;;;;;37.60;15.75;;;;;;;-142.57;100.00;55717.19;4995074;28;20061;-78
2024/01/31 01:19:55;;;;;;;37.60;15.90;;;;;;;-142.57;100.00;55697.00;5018953;28;20034;-80
2024/01/31 01:22:21;;;;;;;36.45;15.23;;;;;;;-142.57;100.00;55692.94;5030535;28;20025;-79
2024/01/31 01:24:46;;;;;;;37.35;16.55;;;;;;;-142.57;100.00;55713.16;5026957;28;20037;-79
2024/01/31 01:27:12;;;;;;;29.05;14.60;;;;;;;-142.57;100.00;55697.00;5011438;28;20036;-78
2024/01/31 01:29:37;;;;;;;37.90;15.25;;;;;;;-142.57;100.00;55741.44;5018462;28;20045;-79
2024/01/31 01:32:03;;;;;;;32.45;14.68;;;;;;;-142.57;100.00;55721.22;5036084;28;20040;-80
2024/01/31 01:34:29;;;;;;;29.05;12.95;;;;;;;-142.57;100.00;55709.09;5019955;28;20037;-77
2024/01/31 01:36:54;;;;;;;28.98;13.38;;;;;;;-142.57;100.00;55684.88;5016672;28;20034;-77
2024/01/31 01:39:19;;;;;;;27.45;13.05;;;;;;;-142.57;100.00;55654.56;5007637;28;20037;-79
2024/01/31 01:41:49;;;;;;;25.60;12.10;;;;;;;-142.57;100.00;55680.81;5026275;28;20037;-79
2024/01/31 01:44:15;;;;;;;27.35;12.27;;;;;;;-142.57;100.00;55707.09;5028376;28;20037;-80
2024/01/31 01:46:41;;;;;;;30.63;12.40;;;;;;;-142.57;100.00;55743.47;5033126;28;20096;-77
2024/01/31 01:49:07;;;;;;;28.83;13.02;;;;;;;-142.57;100.00;55721.22;5025647;28;20034;-78
2024/01/31 01:51:33;;;;;;;26.10;12.35;;;;;;;-142.57;100.00;55709.09;5025261;28;20030;-78
2024/01/31 01:54:05;;;;;;;26.83;12.10;;;;;;;-142.57;100.00;55713.16;5006724;28;20489;-79
2024/01/31 01:56:31;;;;;;;24.98;11.40;;;;;;;-142.57;100.00;55705.06;5026772;28;20494;-80
2024/01/31 01:59:12;;;;;;;27.85;10.98;;;;;;;-142.57;100.00;55699.00;5025968;28;20064;-80
2024/01/31 02:01:41;;;;;;;29.08;11.57;;;;;;;-142.57;100.00;55735.38;5026160;28;20026;-83
2024/01/31 02:04:08;;;;;;;29.45;12.20;;;;;;;-142.57;100.00;55701.03;5024564;28;20037;-83
2024/01/31 02:06:33;;;;;;;24.42;10.75;;;;;;;-142.57;100.00;55680.81;5026148;28;20057;-78
2024/01/31 02:08:59;;;;;;;23.80;11.85;;;;;;;-142.57;100.00;55725.28;5024308;28;20056;-75
2024/01/31 02:11:25;;;;;;;26.52;11.60;;;;;;;-142.57;100.00;55694.97;5029242;28;20033;-82
2024/01/31 02:13:50;;;;;;;26.17;11.93;;;;;;;-142.57;100.00;55676.78;5035133;28;20478;-78
2024/01/31 02:16:16;;;;;;;23.83;11.73;;;;;;;-142.57;100.00;55660.63;5034180;28;20033;-76
2024/01/31 02:18:41;;;;;;;26.08;12.02;;;;;;;-142.57;100.00;55692.94;5036342;28;20397;-78
2024/01/31 02:21:07;;;;;;;25.88;12.20;;;;;;;-142.57;100.00;55678.81;5045830;28;20034;-78
2024/01/31 02:23:32;;;;;;;24.33;11.40;;;;;;;-142.57;100.00;55688.91;5039925;28;20041;-79
2024/01/31 02:25:58;;;;;;;24.10;11.25;;;;;;;-142.57;100.00;55688.91;5034455;28;20037;-77
2024/01/31 02:28:24;;;;;;;25.10;11.85;;;;;;;-142.57;100.00;55684.88;5038867;28;20033;-78
2024/01/31 02:30:50;;;;;;;23.90;10.93;;;;;;;-142.57;100.00;55713.16;5038557;28;20087;-77
2024/01/31 02:33:16;;;;;;;25.67;11.48;;;;;;;-142.57;100.00;55694.97;5027534;28;20485;-77
2024/01/31 02:35:42;;;;;;;26.58;11.27;;;;;;;-142.57;100.00;55660.63;5033883;28;20041;-77
2024/01/31 02:38:07;;;;;;;27.00;11.88;;;;;;;-142.57;100.00;55717.19;5034698;28;20064;-79
2024/01/31 02:40:33;;;;;;;23.25;10.73;;;;;;;-142.57;100.00;55680.81;5024092;28;20033;-78
2024/01/31 02:42:59;;;;;;;22.33;11.18;;;;;;;-142.57;100.00;55692.94;5015156;28;20390;-76
2024/01/31 02:45:25;;;;;;;22.58;11.10;;;;;;;-142.57;100.00;55646.47;5015302;28;20030;-77
2024/01/31 02:47:51;;;;;;;25.83;10.98;;;;;;;-142.57;100.00;55668.69;5015746;28;20045;-80
2024/01/31 02:50:16;;;;;;;23.60;11.77;;;;;;;-142.57;100.00;55620.22;5015105;28;20046;-79
2024/01/31 02:52:42;;;;;;;24.50;10.98;;;;;;;-142.57;100.00;55606.06;5015256;28;20486;-77
2024/01/31 02:55:08;;;;;;;27.08;11.43;;;;;;;-142.57;100.00;55640.41;4997710;28;20048;-77
2024/01/31 02:57:34;;;;;;;24.98;11.27;;;;;;;-142.57;100.00;55567.69;5015355;28;20068;-78
2024/01/31 03:00:00;;;;;;;23.42;10.52;;;;;;;-142.57;100.00;55608.09;5015438;28;20051;-79
2024/01/31 03:02:26;;;;;;;25.25;11.55;;;;;;;-142.57;100.00;55632.34;5015765;28;20065;-78
2024/01/31 03:04:52;;;;;;;25.15;11.60;;;;;;;-142.57;100.00;55610.09;5015804;28;20124;-80
2024/01/31 03:07:18;;;;;;;26.60;11.93;;;;;;;-142.57;100.00;55632.34;4997824;28;20030;-78
2024/01/31 03:09:45;;;;;;;26.45;11.85;;;;;;;-142.57;100.00;55622.22;5014909;28;20105;-80
2024/01/31 03:12:10;;;;;;;26.75;12.02;;;;;;;-142.57;100.00;55585.84;5014558;28;20513;-78
2024/01/31 03:14:36;;;;;;;25.33;10.48;;;;;;;-142.57;100.00;55547.47;5014636;28;20041;-81
2024/01/31 03:17:02;;;;;;;27.40;11.23;;;;;;;-142.57;100.00;55563.63;5014645;28;20451;-77
2024/01/31 03:19:29;;;;;;;25.85;12.23;;;;;;;-142.57;100.00;55559.59;4996977;28;20430;-78
2024/01/31 03:21:55;;;;;;;24.00;11.15;;;;;;;-142.57;100.00;55579.81;5014433;28;20038;-78
2024/01/31 03:24:25;;;;;;;25.77;11.13;;;;;;;-142.57;100.00;55612.13;5014322;28;20033;-78
2024/01/31 03:26:51;;;;;;;24.02;11.82;;;;;;;-142.57;100.00;55604.03;4996842;28;20467;-78
2024/01/31 03:29:17;;;;;;;23.77;11.88;;;;;;;-142.57;100.00;55600.00;5014218;28;20061;-78
2024/01/31 03:31:42;;;;;;;25.65;10.60;;;;;;;-142.57;100.00;55587.88;5014011;28;20077;-78
2024/01/31 03:34:08;;;;;;;23.25;10.88;;;;;;;-142.57;100.00;55620.22;4996942;28;20438;-77
2024/01/31 03:36:35;;;;;;;23.48;11.18;;;;;;;-142.57;100.00;55628.28;5014543;28;20045;-78
2024/01/31 03:39:00;;;;;;;26.08;11.57;;;;;;;-142.57;100.00;55630.31;5014280;28;20030;-78
2024/01/31 03:41:27;;;;;;;24.60;11.27;;;;;;;-142.57;100.00;55622.22;5014134;28;20045;-79
2024/01/31 03:43:52;;;;;;;25.08;11.40;;;;;;;-142.57;100.00;55569.69;4996710;28;20030;-77
2024/01/31 03:46:18;;;;;;;27.67;11.50;;;;;;;-142.57;100.00;55610.09;5014078;28;20030;-81
2024/01/31 03:48:43;;;;;;;26.17;11.40;;;;;;;-142.57;100.00;55602.03;5016356;28;20042;-78
2024/01/31 03:51:19;;;;;;;28.02;11.82;;;;;;;-142.57;100.00;55547.47;5037064;28;20048;-78
2024/01/31 03:53:45;;;;;;;28.13;11.88;;;;;;;-142.57;100.00;55523.22;5030515;28;20129;-79
2024/01/31 03:56:11;;;;;;;23.63;10.90;;;;;;;-142.57;100.00;55579.81;5014114;28;20440;-77
2024/01/31 03:58:36;;;;;;;27.85;10.77;;;;;;;-142.57;100.00;55553.53;5014337;28;20057;-77
2024/01/31 04:01:03;;;;;;;32.45;11.13;;;;;;;-142.57;100.00;55559.59;5016428;28;20041;-78
2024/01/31 04:03:29;;;;;;;23.98;11.02;;;;;;;-142.57;100.00;55547.47;4998937;28;20042;-77
2024/01/31 04:05:55;;;;;;;23.15;11.40;;;;;;;-142.57;100.00;55551.50;5013502;28;20034;-76
2024/01/31 04:08:21;;;;;;;27.08;11.88;;;;;;;-142.57;100.00;55533.31;4995785;28;20379;-79
2024/01/31 04:10:47;;;;;;;31.92;11.68;;;;;;;-142.57;100.00;55563.63;4996175;28;20053;-78
2024/01/31 04:13:12;;;;;;;26.95;11.73;;;;;;;-142.57;100.00;55547.47;5013587;28;20064;-78
2024/01/31 04:15:38;;;;;;;23.58;11.43;;;;;;;-142.57;100.00;55531.31;5013907;28;20080;-77
2024/01/31 04:18:03;;;;;;;28.63;12.13;;;;;;;-142.57;100.00;55539.38;4996541;28;20029;-77
2024/01/31 04:20:29;;;;;;;27.58;11.63;;;;;;;-142.57;100.00;55587.88;5013744;28;20112;-78
2024/01/31 04:22:54;;;;;;;24.02;11.27;;;;;;;-142.57;100.00;55579.81;5013897;28;20395;-78
2024/01/31 04:25:20;;;;;;;26.42;11.85;;;;;;;-142.57;100.00;55579.81;4995911;28;20117;-78
2024/01/31 04:27:45;;;;;;;28.50;11.85;;;;;;;-142.57;100.00;55563.63;5013454;28;20038;-78
2024/01/31 04:30:11;;;;;;;25.55;11.48;;;;;;;-142.57;100.00;55610.09;5013658;28;20061;-77
2024/01/31 04:32:37;;;;;;;25.98;12.43;;;;;;;-142.57;100.00;55591.91;5013620;28;20037;-76
2024/01/31 04:35:07;;;;;;;27.25;11.90;;;;;;;-142.57;100.00;55579.81;5016779;28;20048;-78
2024/01/31 04:37:33;;;;;;;27.23;12.13;;;;;;;-142.57;100.00;55583.84;5017332;28;20026;-77
2024/01/31 04:39:58;;;;;;;25.63;11.63;;;;;;;-142.57;100.00;55600.00;5016704;28;20105;-78
2024/01/31 04:42:24;;;;;;;32.13;12.70;;;;;;;-142.57;100.00;55587.88;5027892;28;20034;-78
2024/01/31 04:44:49;;;;;;;26.23;11.60;;;;;;;-142.57;100.00;55618.19;5015048;28;20117;-79
2024/01/31 04:47:15;;;;;;;24.02;11.23;;;;;;;-142.57;100.00;55583.84;5013345;28;20441;-78
2024/01/31 04:49:41;;;;;;;22.90;10.95;;;;;;;-142.57;100.00;55595.97;4995655;28;20040;-78
2024/01/31 04:52:06;;;;;;;20.73;11.27;;;;;;;-142.57;100.00;55608.09;5013164;28;20391;-80
2024/01/31 04:54:32;;;;;;;23.45;10.73;;;;;;;-142.57;100.00;55581.81;5018461;28;20104;-79
2024/01/31 04:56:57;;;;;;;26.90;11.02;;;;;;;-142.57;100.00;55579.81;5013264;28;20042;-78
2024/01/31 04:59:23;;;;;;;27.42;12.07;;;;;;;-142.57;100.00;55559.59;5013948;28;20064;-80
2024/01/31 05:01:48;;;;;;;28.40;12.27;;;;;;;-142.57;100.00;55585.84;5024927;28;20486;-81
2024/01/31 05:04:14;;;;;;;23.33;11.65;;;;;;;-142.57;100.00;55583.84;5017288;28;20030;-80
2024/01/31 05:06:40;;;;;;;29.58;12.25;;;;;;;-142.57;100.00;55591.91;5017813;28;20026;-78
2024/01/31 05:09:06;;;;;;;26.95;11.90;;;;;;;-142.57;100.00;55567.69;5017482;28;20034;-80
2024/01/31 05:11:32;;;;;;;29.70;13.25;;;;;;;-142.57;100.00;55577.78;5017086;28;20056;-77
2024/01/31 05:13:57;;;;;;;26.55;11.93;;;;;;;-142.57;100.00;55559.59;5017211;28;20543;-80
2024/01/31 05:16:23;;;;;;;27.05;12.50;;;;;;;-142.57;100.00;55559.59;5017255;28;20041;-81
2024/01/31 05:18:48;;;;;;;27.77;12.35;;;;;;;-142.57;100.00;55565.66;5017277;28;20030;-78
2024/01/31 05:21:14;;;;;;;30.13;12.80;;;;;;;-142.57;100.00;55585.84;4999755;28;20037;-78
2024/01/31 05:23:39;;;;;;;26.13;12.02;;;;;;;-142.57;100.00;55624.25;5017278;28;20506;-80
2024/01/31 05:26:09;;;;;;;29.55;11.85;;;;;;;-142.57;100.00;55563.63;5016650;28;20494;-79
2024/01/31 05:28:36;;;;;;;28.75;12.52;;;;;;;-142.57;100.00;55583.84;5017204;28;20045;-78
2024/01/31 05:31:03;;;;;;;28.33;12.30;;;;;;;-142.57;100.00;55591.91;5017330;28;20383;-81
2024/01/31 05:33:29;;;;;;;28.65;12.88;;;;;;;-142.57;100.00;55632.34;5018314;28;20037;-81
2024/01/31 05:35:56;;;;;;;29.92;13.60;;;;;;;-142.57;100.00;55591.91;5020278;28;20126;-79
2024/01/31 05:38:21;;;;;;;28.38;12.38;;;;;;;-142.57;100.00;55539.38;5019000;28;20101;-79
2024/01/31 05:40:47;;;;;;;27.13;13.07;;;;;;;-142.57;100.00;55579.81;5016686;28;20125;-77
2024/01/31 05:43:13;;;;;;;28.35;12.90;;;;;;;-142.57;100.00;55511.09;5028036;28;20048;-79
2024/01/31 05:45:38;;;;;;;35.67;13.98;;;;;;;-142.57;100.00;55507.06;5035865;28;20037;-79
2024/01/31 05:48:04;;;;;;;31.90;13.63;;;;;;;-142.57;100.00;55511.09;5035915;28;20442;-78
2024/01/31 05:50:30;;;;;;;29.15;13.10;;;;;;;-142.57;100.00;55535.34;5036420;28;20048;-79
2024/01/31 05:52:55;;;;;;;31.25;13.77;;;;;;;-142.57;100.00;55464.63;5036124;28;20541;-82
2024/01/31 05:55:21;;;;;;;32.92;13.00;;;;;;;-142.57;100.00;55482.81;5036064;28;20033;-78
2024/01/31 05:57:49;;;;;;;30.27;12.35;;;;;;;-142.57;100.00;55446.44;5036072;28;20482;-78
2024/01/31 06:00:16;;;;;;;31.88;13.82;;;;;;;-142.57;100.00;55474.72;5018464;28;20040;-85
2024/01/31 06:02:42;;;;;;;30.15;13.15;;;;;;;-142.57;100.00;55490.91;5037691;28;20013;-82
2024/01/31 06:05:08;;;;;;;29.92;13.52;;;;;;;-142.57;100.00;55519.19;5037263;28;20111;-77
2024/01/31 06:07:34;;;;;;;30.85;13.73;;;;;;;-142.57;100.00;55519.19;5036554;28;20502;-80
2024/01/31 06:09:59;;;;;;;33.85;14.55;;;;;;;-142.57;100.00;55515.16;5037262;28;20154;-80
2024/01/31 06:12:26;;;;;;;39.80;17.17;;;;;;;-142.57;100.00;55462.63;5035308;28;20116;-84
2024/01/31 06:14:51;;;;;;;41.03;17.55;;;;;;;-142.57;100.00;55503.03;5036033;28;20152;-85
2024/01/31 06:17:17;;;;;;;39.05;16.02;;;;;;;-142.57;100.00;55472.72;5035699;28;20044;-81
2024/01/31 06:19:46;;;;;;;33.55;13.75;;;;;;;-142.57;100.00;55478.78;5037222;28;20033;-83
2024/01/31 06:22:11;;;;;;;39.05;16.25;;;;;;;-142.57;100.00;55478.78;5036436;28;20048;-81
2024/01/31 06:24:38;;;;;;;34.58;15.05;;;;;;;-142.57;100.00;55503.03;5035790;28;20045;-80
2024/01/31 06:27:04;;;;;;;35.50;15.40;;;;;;;-142.57;100.00;55494.94;5027153;28;20026;-80
2024/01/31 06:29:29;;;;;;;38.38;15.30;;;;;;;-142.57;100.00;55521.22;5035334;28;20120;-83
2024/01/31 06:31:59;;;;;;;35.65;14.90;;;;;;;-142.57;100.00;55525.25;5016845;28;20048;-80
2024/01/31 06:34:25;;;;;;;30.17;13.77;;;;;;;-142.57;100.00;55539.38;5016232;28;20042;-78
2024/01/31 06:36:52;;;;;;;31.67;14.85;;;;;;;-142.57;100.00;55519.19;5016340;28;20034;-78
2024/01/31 06:39:17;;;;;;;35.58;15.10;;;;;;;-142.57;100.00;55535.34;5016542;28;20080;-79
2024/01/31 06:41:43;;;;;;;41.10;15.05;;;;;;;-142.57;100.00;55555.56;5031470;28;20046;-80
2024/01/31 06:44:08;;;;;;;29.80;13.70;;;;;;;-142.57;100.00;55589.91;5020295;28;20038;-79
2024/01/31 06:46:34;;;;;;;30.52;13.20;;;;;;;-142.57;100.00;55589.91;5019029;28;20100;-78
2024/01/31 06:49:00;;;;;;;32.72;13.75;;;;;;;-142.57;100.00;55551.50;5015731;28;20030;-77
2024/01/31 06:51:26;;;;;;;29.95;14.02;;;;;;;-142.57;100.00;55494.94;5015700;28;20068;-79
2024/01/31 06:53:51;;;;;;;30.95;12.95;;;;;;;-142.57;100.00;55507.06;5015532;28;20467;-78
2024/01/31 06:56:19;;;;;;;37.53;13.93;;;;;;;-142.57;100.00;55519.19;4998529;28;20038;-78
2024/01/31 06:58:48;;;;;;;45.38;17.75;;;;;;;-142.57;100.00;55521.22;5022206;28;20065;-78
2024/01/31 07:01:18;;;;;;;59.50;24.77;;;;;;;-142.57;100.00;55511.09;5020868;28;20034;-77
2024/01/31 07:03:44;;;;;;;41.80;16.98;;;;;;;-142.57;100.00;55519.19;5015300;28;20038;-79
2024/01/31 07:06:10;;;;;;;35.30;16.02;;;;;;;-142.57;100.00;55527.28;5016879;28;20499;-78
2024/01/31 07:08:36;;;;;;;31.52;14.50;;;;;;;-142.57;100.00;55644.47;5017697;28;20447;-77
2024/01/31 07:11:05;;;;;;;29.85;13.30;;;;;;;-142.57;100.00;55737.41;5015284;28;20040;-79
2024/01/31 07:13:31;;;;;;;36.75;15.52;;;;;;;-142.57;100.00;55874.78;5015259;28;20034;-77
2024/01/31 07:15:57;;;;;;;30.45;14.52;;;;;;;-142.57;100.00;55818.22;5014633;28;20367;-80
2024/01/31 07:18:22;;;;;;;28.52;14.35;;;;;;;-142.57;100.00;55836.41;5014743;28;20045;-79
2024/01/31 07:20:48;;;;;;;30.75;14.43;;;;;;;-142.57;100.00;55850.56;4997331;28;20462;-78
2024/01/31 07:23:14;;;;;;;33.97;12.93;;;;;;;-142.57;100.00;55973.81;5014682;28;20546;-79
2024/01/31 07:25:40;;;;;;;31.83;13.93;;;;;;;-142.57;100.00;56044.53;5014674;28;20030;-79
2024/01/31 07:28:05;;;;;;;29.02;13.50;;;;;;;-142.57;100.00;56192.03;5014592;28;20038;-77
2024/01/31 07:30:32;;;;;;;32.05;14.27;;;;;;;-142.57;100.00;56266.81;5015037;28;20030;-81
2024/01/31 07:32:58;;;;;;;31.73;15.10;;;;;;;-142.57;100.00;56270.84;5014478;28;20041;-78
2024/01/31 07:35:24;;;;;;;32.47;15.65;;;;;;;-142.57;100.00;56311.28;5000270;28;20049;-82
2024/01/31 07:37:50;;;;;;;32.53;15.95;;;;;;;-142.57;100.00;56194.06;5015802;28;20018;-84
2024/01/31 07:40:16;;;;;;;31.17;15.55;;;;;;;-142.57;100.00;56103.13;5015128;28;20083;-84
2024/01/31 07:42:41;;;;;;;33.45;15.55;;;;;;;-142.57;100.00;56274.91;5021557;28;20513;-82
2024/01/31 07:45:08;;;;;;;34.40;16.25;;;;;;;-142.57;100.00;56396.16;5034874;28;20025;-85
2024/01/31 07:47:36;;;;;;;31.75;16.33;;;;;;;-142.57;97.18;56379.97;5030663;28;20033;-78
2024/01/31 07:50:05;;;;;;;31.58;15.13;;;;;;;-142.57;100.00;56133.44;5023108;28;20026;-82
2024/01/31 07:52:31;;;;;;;33.55;15.13;;;;;;;-142.57;95.41;56161.72;5023457;28;20033;-83
2024/01/31 07:54:58;;;;;;;32.80;15.30;;;;;;;-142.57;94.11;56105.16;5026620;28;20031;-81
2024/01/31 07:57:24;;;;;;;36.15;15.10;;;;;;;-142.57;92.99;56141.53;5009248;28;20030;-81
2024/01/31 07:59:49;;;;;;;39.13;15.50;;;;;;;-142.57;92.54;56153.66;5009723;28;20550;-82
2024/01/31 08:02:15;;;;;;;55.95;18.73;;;;;;;-142.57;90.71;56161.72;5007557;28;20048;-81
2024/01/31 08:04:41;;;;;;;38.33;17.42;;;;;;;-142.57;87.33;56208.22;5033473;28;20037;-77
2024/01/31 08:07:12;;;;;;;53.58;16.13;;;;;;;-142.57;85.26;56345.63;5033304;28;20093;-82
2024/01/31 08:09:41;;;;;;;69.38;16.40;;;;;;;-142.57;79.43;56521.44;5011304;28;20348;-81
2024/01/31 08:12:07;;;;;;;41.55;16.23;;;;;;;-142.57;74.45;56679.09;5033302;28;20026;-81
2024/01/31 08:14:33;;;;;;;50.13;17.38;;;;;;;-142.57;70.16;56784.19;5010532;28;20029;-80
2024/01/31 08:16:58;;;;;;;45.33;18.67;;;;;;;-142.57;68.30;56814.50;5029935;28;20037;-79
2024/01/31 08:19:24;;;;;;;48.90;19.48;;;;;;;-142.57;67.25;56881.19;5037283;28;20033;-82
2024/01/31 08:21:49;;;;;;;44.60;18.67;;;;;;;-142.57;63.25;57075.22;5036612;28;20025;-81
2024/01/31 08:24:15;;;;;;;47.47;18.10;;;;;;;-142.57;65.48;56755.88;5038610;28;20060;-83
2024/01/31 08:26:41;;;;;;;66.05;20.33;;;;;;;-142.57;69.62;56634.63;5039536;28;20090;-83
2024/01/31 08:29:06;;;;;;;59.13;18.95;;;;;;;-142.57;70.48;56567.94;5029852;28;20160;-84
2024/01/31 08:31:33;;;;;;;53.30;21.25;;;;;;;-142.57;72.93;56483.06;5026971;28;20037;-84
2024/01/31 08:33:58;;;;;;;113.05;22.65;;;;;;;-142.57;74.81;56489.13;5034973;28;20026;-86
2024/01/31 08:36:24;;;;;;;57.63;21.45;;;;;;;-142.57;77.46;56291.06;5038402;28;20025;-84
2024/01/31 08:38:49;;;;;;;43.15;20.75;;;;;;;-142.57;80.54;56157.69;5036828;28;20478;-82
2024/01/31 08:41:15;;;;;;;67.28;22.40;;;;;;;-142.57;86.80;56109.19;5037878;28;20097;-85
2024/01/31 08:43:40;;;;;;;67.18;24.63;;;;;;;-142.57;89.94;56076.88;5035717;28;20036;-82
2024/01/31 08:46:06;;;;;;;69.70;23.48;;;;;;;-142.57;86.49;56093.03;5035764;28;20033;-81
2024/01/31 08:48:31;;;;;;;61.63;21.73;;;;;;;-142.57;85.34;56111.22;5018624;28;20028;-84
2024/01/31 08:50:58;;;;;;;47.42;19.42;;;;;;;-142.57;84.34;56068.78;5017203;28;20033;-83
2024/01/31 08:53:23;;;;;;;40.05;18.40;;;;;;;-142.57;82.92;56054.63;5033586;28;20040;-83
2024/01/31 08:55:49;;;;;;;50.60;19.05;;;;;;;-142.57;83.59;56139.50;5033962;28;20038;-79
2024/01/31 08:58:14;;;;;;;50.33;19.85;;;;;;;-142.57;81.48;56214.28;5033577;28;20383;-79
2024/01/31 09:00:40;;;;;;;57.97;19.10;;;;;;;-142.57;80.52;56214.28;5034385;28;20029;-84
2024/01/31 09:03:05;;;;;;;56.10;19.02;;;;;;;-142.57;80.01;56181.94;5033428;28;20103;-80
2024/01/31 09:05:30;;;;;;;63.88;19.73;;;;;;;-142.57;79.22;56248.63;5025366;28;20080;-82
2024/01/31 09:07:56;;;;;;;48.03;17.35;;;;;;;-142.57;75.77;56254.69;5023192;28;20030;-82
2024/01/31 09:10:22;;;;;;;58.05;18.13;;;;;;;-142.57;76.75;56270.84;5029221;28;20427;-83
2024/01/31 09:12:48;;;;;;;74.40;20.52;;;;;;;-142.57;77.06;56252.66;5034874;28;20049;-81
2024/01/31 09:15:13;;;;;;;66.78;20.42;;;;;;;-142.57;76.52;56319.34;5037287;28;20068;-85
2024/01/31 09:17:42;;;;;;;45.38;18.38;;;;;;;-142.57;75.59;56323.41;5023751;28;20061;-79
2024/01/31 09:20:08;;;;;;;87.13;19.88;;;;;;;-142.57;79.68;56287.03;5040009;28;20056;-83
2024/01/31 09:22:33;;;;;;;51.67;19.10;;;;;;;-142.57;79.54;56248.63;5037634;28;20021;-82
2024/01/31 09:24:59;;;;;;;166.27;25.17;;;;;;;-142.57;82.16;56274.91;5039902;28;20021;-79
2024/01/31 09:27:24;;;;;;;77.72;20.88;;;;;;;-142.57;83.29;56246.59;5016642;28;20037;-80
2024/01/31 09:29:49;;;;;;;232.93;48.42;;;;;;;-142.57;85.64;56295.09;5033810;28;20037;-82
2024/01/31 09:32:15;;;;;;;109.20;31.60;;;;;;;-142.57;80.96;56375.94;5015517;28;20053;-82
2024/01/31 09:34:41;;;;;;;61.60;20.73;;;;;;;-142.57;77.88;56357.75;5033378;28;20038;-81
2024/01/31 09:37:07;;;;;;;103.57;28.35;;;;;;;-142.57;76.45;56337.53;5033431;28;20407;-82
2024/01/31 09:39:32;;;;;;;105.13;26.02;;;;;;;-142.57;78.46;56337.53;5033000;28;20133;-78
2024/01/31 09:41:58;;;;;;;495.55;72.30;;;;;;;-142.57;84.50;56359.78;5015008;28;20041;-80
2024/01/31 09:44:25;;;;;;;55.67;21.77;;;;;;;-142.57;79.80;56307.22;5014094;28;20025;-77
2024/01/31 09:46:52;;;;;;;242.85;34.88;;;;;;;-142.57;81.99;56299.16;5025640;28;20061;-77
2024/01/31 09:49:18;;;;;;;446.35;48.67;;;;;;;-142.57;83.42;56270.84;5007854;28;20437;-82
2024/01/31 09:51:44;;;;;;;813.28;76.38;;;;;;;-142.57;87.63;56323.41;5027657;28;20025;-85
2024/01/31 09:54:09;;;;;;;751.90;74.70;;;;;;;-142.57;86.16;56379.97;5026839;28;20094;-84
2024/01/31 09:56:38;;;;;;;299.08;36.70;;;;;;;-142.57;80.59;56343.59;5025514;28;20562;-83
2024/01/31 09:59:04;;;;;;;450.42;45.67;;;;;;;-142.57;81.94;56375.94;5025440;28;20038;-83
2024/01/31 10:01:29;;;;;;;34.50;17.52;;;;;;;-142.57;76.36;56384.03;5024711;28;20076;-83
2024/01/31 10:03:59;;;;;;;568.30;51.90;;;;;;;-142.57;83.38;56377.97;5028895;28;20497;-85
2024/01/31 10:06:27;;;;;;;72.25;17.90;;;;;;;-142.57;79.76;56396.16;4991825;28;20048;-83
2024/01/31 10:08:52;;;;;;;32.53;15.27;;;;;;;-142.57;83.35;56371.91;5026991;28;20060;-81
2024/01/31 10:11:21;;;;;;;138.57;23.25;;;;;;;-142.57;85.19;56428.47;5008265;28;20029;-81
2024/01/31 10:13:46;;;;;;;64.47;17.13;;;;;;;-142.57;84.17;56414.34;5025389;28;20356;-80
2024/01/31 10:16:13;;;;;;;160.57;23.20;;;;;;;-142.57;86.90;56388.06;5024132;28;20033;-84
2024/01/31 10:18:40;;;;;;;199.80;28.92;;;;;;;-142.57;92.77;56408.28;5010330;28;20038;-86
2024/01/31 10:21:30;;;;;;;79.25;19.55;;;;;;;-142.57;85.76;56408.28;5026288;28;20034;-84
2024/01/31 10:24:06;;;;;;;52.35;16.70;;;;;;;-142.57;81.21;56428.47;5033381;28;20038;-82
2024/01/31 10:26:35;;;;;;;76.85;19.58;;;;;;;-142.57;81.59;56420.41;5013456;28;20033;-86
2024/01/31 10:29:01;;;;;;;58.38;19.38;;;;;;;-142.57;84.50;56444.66;5025084;28;20509;-83
2024/01/31 10:31:31;;;;;;;54.30;17.30;;;;;;;-142.57;81.10;56464.84;5024659;28;20036;-86
2024/01/31 10:33:58;;;;;;;31.80;14.13;;;;;;;-142.57;75.72;56513.38;5025578;28;20569;-86
2024/01/31 10:36:25;;;;;;;40.60;14.45;;;;;;;-142.57;75.01;56434.56;5032544;28;20083;-84
2024/01/31 10:38:52;;;;;;;29.42;13.70;;;;;;;-142.57;74.11;56483.06;5031119;28;20049;-80
2024/01/31 10:41:19;;;;;;;31.58;13.85;;;;;;;-142.57;72.24;56487.09;5025322;28;20029;-79
2024/01/31 10:43:48;;;;;;;53.85;15.02;;;;;;;-142.57;70.63;56491.13;5034849;28;20033;-78
2024/01/31 10:46:14;;;;;;;38.28;13.98;;;;;;;-142.57;70.18;56531.56;5034849;28;20490;-81
2024/01/31 10:48:40;;;;;;;49.75;16.35;;;;;;;-142.57;70.09;56503.25;5030902;28;20041;-79
2024/01/31 10:51:09;;;;;;;35.55;14.98;;;;;;;-142.57;69.94;56561.88;5017020;28;20052;-78